createdAt,value
2019-03-31T00:02:22.048Z,67.45
2019-03-31T00:04:52.384Z,67.39
2019-03-31T00:07:22.686Z,67.57
2019-03-31T00:09:53.035Z,67.73
2019-03-31T00:12:23.324Z,67.71
2019-03-31T00:14:53.684Z,67.73
2019-03-31T00:17:24.033Z,67.93
2019-03-31T00:19:54.371Z,67.95
2019-03-31T00:22:24.677Z,67.98
2019-03-31T00:24:55.033Z,68.18
2019-03-31T00:27:25.365Z,68.14
2019-03-31T00:29:55.689Z,68.18
2019-03-31T00:32:26.013Z,68.15
2019-03-31T00:34:56.337Z,68.28
2019-03-31T00:37:26.665Z,68.29
2019-03-31T00:39:56.974Z,68.37
2019-03-31T00:42:47.667Z,68.64
2019-03-31T00:45:18.030Z,68.57
2019-03-31T00:47:48.353Z,68.61
2019-03-31T00:50:18.721Z,68.69
2019-03-31T00:52:48.995Z,68.86
2019-03-31T00:55:19.380Z,69.20
2019-03-31T00:57:49.823Z,69.31
2019-03-31T01:00:38.229Z,69.57
2019-03-31T01:03:08.600Z,69.64
2019-03-31T01:05:39.360Z,69.89
2019-03-31T01:08:09.724Z,69.90
2019-03-31T01:10:40.045Z,70.15
2019-03-31T01:13:10.416Z,70.20
2019-03-31T01:15:40.755Z,70.36
2019-03-31T01:18:11.082Z,70.41
2019-03-31T01:20:41.435Z,70.46
2019-03-31T01:23:11.762Z,70.80
2019-03-31T01:25:42.144Z,70.90
2019-03-31T01:28:12.518Z,71.25
2019-03-31T01:30:42.875Z,71.29
2019-03-31T01:33:13.193Z,71.29
2019-03-31T01:35:43.551Z,71.49
2019-03-31T01:38:13.866Z,71.62
2019-03-31T01:40:44.190Z,71.76
2019-03-31T01:43:14.513Z,71.83
2019-03-31T01:45:44.816Z,72.03
2019-03-31T01:48:15.163Z,72.07
2019-03-31T01:50:45.465Z,72.18
2019-03-31T01:53:15.816Z,72.18
2019-03-31T01:55:46.142Z,72.28
2019-03-31T01:58:16.485Z,72.56
2019-03-31T02:00:51.123Z,72.66
2019-03-31T02:03:21.475Z,72.49
2019-03-31T02:05:51.799Z,73.25
2019-03-31T02:08:22.163Z,73.23
2019-03-31T02:10:52.449Z,73.09
2019-03-31T02:13:22.771Z,73.41
2019-03-31T02:15:53.052Z,73.39
2019-03-31T02:18:23.406Z,73.64
2019-03-31T02:20:53.767Z,73.55
2019-03-31T02:23:24.109Z,73.70
2019-03-31T02:25:54.416Z,74.11
2019-03-31T02:28:24.755Z,74.53
2019-03-31T02:30:55.068Z,74.70
2019-03-31T02:33:25.490Z,75.12
2019-03-31T02:35:55.832Z,75.36
2019-03-31T02:38:26.161Z,75.34
2019-03-31T02:40:56.506Z,75.43
2019-03-31T02:43:26.871Z,75.73
2019-03-31T02:45:57.341Z,75.46
2019-03-31T02:48:27.635Z,75.49
2019-03-31T02:50:57.984Z,75.71
2019-03-31T02:53:28.373Z,75.71
2019-03-31T02:55:58.799Z,75.73
2019-03-31T02:58:29.188Z,75.95
2019-03-31T03:00:59.751Z,75.98
2019-03-31T03:03:30.714Z,76.45
2019-03-31T03:06:00.986Z,76.60
2019-03-31T03:08:31.346Z,76.67
2019-03-31T03:11:01.653Z,76.89
2019-03-31T03:13:31.991Z,76.99
2019-03-31T03:16:27.484Z,77.00
2019-03-31T03:18:57.800Z,77.28
2019-03-31T03:21:28.123Z,77.41
2019-03-31T03:23:58.830Z,78.09
2019-03-31T03:26:29.142Z,78.09
2019-03-31T03:28:59.480Z,78.14
2019-03-31T03:31:29.799Z,78.34
2019-03-31T03:34:00.132Z,78.62
2019-03-31T03:36:30.522Z,78.62
2019-03-31T03:39:00.909Z,78.82
2019-03-31T03:41:31.325Z,79.15
2019-03-31T03:44:02.482Z,79.07
2019-03-31T03:46:32.244Z,79.04
2019-03-31T03:49:02.644Z,78.82
2019-03-31T03:51:32.980Z,79.24
2019-03-31T03:54:03.393Z,79.76
2019-03-31T03:56:33.696Z,79.87
2019-03-31T03:59:04.058Z,79.76
2019-03-31T04:01:34.403Z,79.79
2019-03-31T04:04:04.776Z,80.09
2019-03-31T04:06:35.105Z,80.46
2019-03-31T04:09:06.528Z,80.24
2019-03-31T04:11:36.827Z,81.07
2019-03-31T04:14:07.154Z,81.36
2019-03-31T04:16:37.480Z,81.92
2019-03-31T04:19:07.825Z,81.76
2019-03-31T04:21:38.144Z,81.87
2019-03-31T04:24:08.461Z,81.56
2019-03-31T04:26:38.797Z,81.56
2019-03-31T04:29:09.145Z,81.52
2019-03-31T04:31:39.602Z,81.82
2019-03-31T04:34:10.033Z,81.97
2019-03-31T04:36:40.436Z,81.87
2019-03-31T04:39:10.824Z,81.58
2019-03-31T04:41:41.446Z,82.08
2019-03-31T04:44:11.778Z,82.08
2019-03-31T04:46:42.259Z,82.09
2019-03-31T04:49:12.777Z,82.23
2019-03-31T04:51:43.189Z,82.36
2019-03-31T04:54:13.664Z,82.56
2019-03-31T04:56:44.125Z,82.32
2019-03-31T04:59:14.583Z,82.51
2019-03-31T05:01:45.157Z,82.23
2019-03-31T05:04:15.659Z,81.88
2019-03-31T05:06:46.081Z,81.90
2019-03-31T05:09:16.381Z,81.63
2019-03-31T05:11:47.028Z,81.68
2019-03-31T05:14:17.455Z,81.61
2019-03-31T05:16:47.864Z,81.47
2019-03-31T05:19:18.335Z,81.34
2019-03-31T05:21:49.098Z,81.52
2019-03-31T05:24:19.615Z,81.34
2019-03-31T05:26:50.069Z,81.38
2019-03-31T05:29:20.598Z,81.32
2019-03-31T05:31:51.063Z,81.00
2019-03-31T05:34:21.884Z,80.86
2019-03-31T05:36:52.413Z,80.53
2019-03-31T05:39:23.157Z,80.76
2019-03-31T05:41:53.616Z,80.76
2019-03-31T05:44:24.217Z,80.29
2019-03-31T05:46:54.567Z,80.15
2019-03-31T05:49:24.961Z,79.94
2019-03-31T05:51:55.627Z,79.94
2019-03-31T05:54:28.083Z,80.09
2019-03-31T05:56:56.459Z,80.09
2019-03-31T05:59:26.767Z,79.85
2019-03-31T06:01:57.139Z,79.75
2019-03-31T06:04:33.446Z,79.47
2019-03-31T06:06:57.879Z,79.60
2019-03-31T06:09:28.183Z,78.95
2019-03-31T06:11:58.452Z,79.08
2019-03-31T06:14:28.829Z,79.37
2019-03-31T06:16:59.184Z,78.36
2019-03-31T06:19:29.492Z,78.36
2019-03-31T06:21:59.822Z,78.06
2019-03-31T06:24:32.887Z,77.44
2019-03-31T06:27:03.166Z,77.44
2019-03-31T06:29:33.543Z,77.63
2019-03-31T06:32:03.882Z,76.90
2019-03-31T06:34:46.919Z,76.90
2019-03-31T06:37:04.480Z,77.21
2019-03-31T06:39:34.743Z,76.96
2019-03-31T06:42:05.028Z,76.96
2019-03-31T06:44:38.105Z,77.01
2019-03-31T06:47:05.737Z,75.88
2019-03-31T06:49:36.040Z,75.74
2019-03-31T06:52:06.307Z,75.74
2019-03-31T06:54:36.638Z,74.16
2019-03-31T06:57:07.050Z,74.28
2019-03-31T06:59:37.435Z,73.65
2019-03-31T07:02:07.795Z,72.53
2019-03-31T07:04:38.209Z,72.21
2019-03-31T07:07:08.523Z,72.21
2019-03-31T07:09:38.848Z,72.22
2019-03-31T07:12:09.115Z,72.02
2019-03-31T07:14:39.500Z,71.03
2019-03-31T07:17:09.843Z,71.16
2019-03-31T07:19:40.628Z,69.59
2019-03-31T07:22:11.079Z,69.69
2019-03-31T07:24:41.723Z,69.22
2019-03-31T07:27:12.157Z,68.04
2019-03-31T07:29:42.511Z,68.80
2019-03-31T07:32:12.823Z,68.51
2019-03-31T07:34:43.116Z,68.70
2019-03-31T07:37:13.471Z,68.78
2019-03-31T07:39:46.020Z,69.03
2019-03-31T07:42:14.742Z,69.07
2019-03-31T07:44:44.939Z,69.04
2019-03-31T07:47:18.103Z,69.11
2019-03-31T07:49:48.369Z,69.68
2019-03-31T07:52:18.676Z,69.73
2019-03-31T07:54:49.238Z,69.96
2019-03-31T07:57:21.847Z,69.80
2019-03-31T07:59:52.198Z,70.25
2019-03-31T08:02:22.470Z,69.78
2019-03-31T08:04:52.950Z,68.75
2019-03-31T08:07:23.572Z,69.13
2019-03-31T08:09:53.871Z,69.13
2019-03-31T08:12:24.449Z,68.92
2019-03-31T08:14:54.766Z,68.12
2019-03-31T08:17:25.078Z,68.06
2019-03-31T08:19:55.369Z,68.00
2019-03-31T08:22:25.769Z,67.73
2019-03-31T08:24:56.230Z,66.76
2019-03-31T08:27:27.032Z,66.56
2019-03-31T08:30:00.822Z,65.58
2019-03-31T08:32:28.607Z,65.01
2019-03-31T08:34:58.043Z,64.61
2019-03-31T08:37:28.414Z,64.64
2019-03-31T08:39:58.739Z,64.17
2019-03-31T08:42:29.080Z,63.30
2019-03-31T08:44:59.386Z,64.36
2019-03-31T08:47:29.659Z,65.11
2019-03-31T08:50:01.985Z,63.14
2019-03-31T08:52:30.319Z,62.28
2019-03-31T08:55:01.385Z,62.53
2019-03-31T08:57:31.653Z,62.30
2019-03-31T09:00:01.940Z,62.30
2019-03-31T09:02:34.547Z,62.87
2019-03-31T09:05:06.124Z,61.97
2019-03-31T09:07:36.482Z,62.04
2019-03-31T09:10:07.751Z,60.86
2019-03-31T09:12:38.617Z,62.39
2019-03-31T09:15:09.272Z,62.80
2019-03-31T09:17:39.571Z,62.92
2019-03-31T09:20:09.973Z,63.28
2019-03-31T09:22:40.319Z,63.57
2019-03-31T09:25:10.637Z,64.30
2019-03-31T09:27:40.905Z,64.62
2019-03-31T09:30:11.724Z,64.83
2019-03-31T09:32:42.023Z,64.06
2019-03-31T09:35:12.343Z,64.05
2019-03-31T09:37:42.627Z,63.06
2019-03-31T09:40:13.081Z,62.12
2019-03-31T09:42:43.440Z,61.67
2019-03-31T09:45:13.741Z,58.03
2019-03-31T09:47:44.091Z,57.02
2019-03-31T09:50:17.283Z,56.29
2019-03-31T09:52:44.847Z,55.54
2019-03-31T09:55:15.158Z,52.41
2019-03-31T09:57:45.442Z,51.34
2019-03-31T10:00:15.754Z,47.33
2019-03-31T10:02:46.021Z,44.88
2019-03-31T10:05:16.670Z,43.33
2019-03-31T10:07:47.234Z,41.36
2019-03-31T10:10:31.247Z,40.58
2019-03-31T10:13:01.769Z,40.07
2019-03-31T10:15:32.078Z,39.03
2019-03-31T10:18:02.426Z,36.61
2019-03-31T10:20:32.741Z,35.52
2019-03-31T10:23:03.072Z,36.48
2019-03-31T10:25:33.408Z,37.91
2019-03-31T10:28:03.758Z,37.94
2019-03-31T10:30:37.824Z,38.34
2019-03-31T10:33:08.144Z,39.79
2019-03-31T10:35:38.457Z,40.24
2019-03-31T10:38:08.744Z,41.34
2019-03-31T10:40:39.038Z,40.17
2019-03-31T10:43:09.350Z,39.38
2019-03-31T10:45:39.698Z,39.04
2019-03-31T10:48:20.139Z,39.25
2019-03-31T10:50:40.350Z,39.18
2019-03-31T10:53:10.768Z,38.79
2019-03-31T10:55:41.456Z,39.02
2019-03-31T10:58:11.750Z,37.44
2019-03-31T11:00:44.546Z,36.47
2019-03-31T11:03:12.405Z,36.81
2019-03-31T11:05:42.708Z,35.42
2019-03-31T11:08:13.038Z,34.35
2019-03-31T11:10:43.451Z,34.21
2019-03-31T11:13:13.768Z,31.43
2019-03-31T11:15:44.171Z,32.87
2019-03-31T11:18:14.489Z,34.00
2019-03-31T11:20:44.807Z,34.80
2019-03-31T11:23:26.262Z,35.31
2019-03-31T11:26:02.260Z,36.68
2019-03-31T11:28:30.575Z,34.06
2019-03-31T11:31:00.908Z,32.04
2019-03-31T11:33:31.306Z,32.77
2019-03-31T11:36:01.609Z,33.35
2019-03-31T11:38:32.072Z,32.42
2019-03-31T11:41:02.380Z,32.95
2019-03-31T11:43:32.680Z,31.05
2019-03-31T11:46:03.045Z,29.54
2019-03-31T11:48:33.475Z,30.63
2019-03-31T11:51:05.023Z,30.85
2019-03-31T11:53:35.376Z,31.15
2019-03-31T11:56:05.754Z,29.20
2019-03-31T11:58:36.105Z,30.93
2019-03-31T12:01:06.402Z,31.18
2019-03-31T12:03:36.656Z,32.60
2019-03-31T12:06:06.974Z,32.04
2019-03-31T12:08:37.400Z,31.90
2019-03-31T12:11:07.685Z,28.51
2019-03-31T12:13:38.051Z,27.86
2019-03-31T12:16:08.385Z,28.43
2019-03-31T12:18:38.662Z,28.65
2019-03-31T12:21:08.976Z,28.54
2019-03-31T12:23:39.414Z,29.70
2019-03-31T12:26:09.796Z,27.95
2019-03-31T12:28:40.128Z,25.47
2019-03-31T12:31:10.619Z,25.13
2019-03-31T12:33:40.977Z,25.75
2019-03-31T12:36:11.331Z,25.25
2019-03-31T12:38:41.697Z,25.06
2019-03-31T12:41:11.997Z,24.56
2019-03-31T12:43:42.362Z,25.96
2019-03-31T12:46:12.702Z,27.14
2019-03-31T12:48:42.975Z,27.12
2019-03-31T12:51:13.316Z,27.88
2019-03-31T12:53:43.776Z,27.36
2019-03-31T12:56:14.078Z,27.20
2019-03-31T12:58:44.392Z,27.68
2019-03-31T13:01:14.749Z,28.90
2019-03-31T13:03:45.024Z,27.10
2019-03-31T13:06:15.361Z,27.78
2019-03-31T13:08:45.648Z,25.76
2019-03-31T13:11:16.219Z,24.83
2019-03-31T13:13:46.546Z,24.93
2019-03-31T13:16:16.908Z,25.75
2019-03-31T13:18:47.336Z,25.01
2019-03-31T13:21:17.693Z,26.17
2019-03-31T13:23:48.074Z,26.55
2019-03-31T13:26:18.519Z,26.33
2019-03-31T13:28:48.893Z,25.69
2019-03-31T13:31:19.180Z,24.54
2019-03-31T13:33:49.468Z,24.41
2019-03-31T13:36:19.819Z,24.37
2019-03-31T13:38:50.361Z,24.69
2019-03-31T13:41:20.627Z,23.06
2019-03-31T13:43:50.930Z,22.48
2019-03-31T13:46:21.304Z,23.63
2019-03-31T13:48:51.656Z,23.90
2019-03-31T13:51:24.480Z,22.50
2019-03-31T13:53:52.312Z,20.81
2019-03-31T13:56:22.620Z,20.91
2019-03-31T13:58:52.942Z,21.52
2019-03-31T14:01:23.294Z,21.97
2019-03-31T14:03:53.585Z,21.92
2019-03-31T14:06:23.897Z,22.07
2019-03-31T14:08:54.209Z,22.17
2019-03-31T14:11:24.506Z,21.99
2019-03-31T14:13:56.150Z,22.24
2019-03-31T14:16:25.143Z,22.77
2019-03-31T14:18:55.415Z,22.37
2019-03-31T14:21:25.747Z,23.19
2019-03-31T14:23:56.097Z,22.69
2019-03-31T14:26:26.411Z,22.98
2019-03-31T14:28:56.743Z,22.72
2019-03-31T14:31:27.042Z,22.67
2019-03-31T14:33:57.399Z,22.86
2019-03-31T14:36:27.675Z,23.99
2019-03-31T14:38:58.040Z,23.42
2019-03-31T14:41:28.346Z,23.72
2019-03-31T14:43:58.937Z,23.74
2019-03-31T14:46:29.308Z,23.73
2019-03-31T14:48:59.583Z,23.92
2019-03-31T14:51:29.955Z,25.38
2019-03-31T14:54:00.268Z,25.86
2019-03-31T14:56:30.605Z,26.37
2019-03-31T14:59:00.943Z,26.50
2019-03-31T15:01:31.241Z,26.91
2019-03-31T15:04:01.620Z,26.64
2019-03-31T15:06:31.950Z,26.65
2019-03-31T15:09:02.234Z,27.74
2019-03-31T15:11:32.484Z,28.54
2019-03-31T15:14:02.915Z,28.73
2019-03-31T15:16:33.213Z,28.19
2019-03-31T15:19:03.484Z,29.06
2019-03-31T15:21:34.142Z,28.50
2019-03-31T15:24:04.447Z,27.88
2019-03-31T15:26:34.814Z,27.11
2019-03-31T15:29:05.266Z,26.85
2019-03-31T15:31:35.521Z,26.36
2019-03-31T15:34:05.891Z,26.69
2019-03-31T15:36:36.173Z,26.48
2019-03-31T15:39:09.311Z,25.53
2019-03-31T15:41:38.307Z,25.20
2019-03-31T15:44:08.585Z,24.48
2019-03-31T15:46:38.894Z,24.29
2019-03-31T15:49:09.545Z,24.18
2019-03-31T15:51:39.948Z,24.89
2019-03-31T15:54:10.276Z,24.53
2019-03-31T15:56:40.619Z,24.37
2019-03-31T15:59:10.933Z,24.41
2019-03-31T16:01:41.253Z,24.48
2019-03-31T16:04:11.517Z,24.63
2019-03-31T16:06:42.385Z,24.57
2019-03-31T16:09:22.917Z,24.64
2019-03-31T16:11:53.230Z,24.81
2019-03-31T16:14:10.284Z,25.65
2019-03-31T16:16:39.527Z,26.12
2019-03-31T16:19:09.205Z,26.46
2019-03-31T16:21:38.543Z,26.73
2019-03-31T16:24:09.342Z,26.99
2019-03-31T16:26:38.647Z,26.68
2019-03-31T16:29:07.880Z,27.29
2019-03-31T16:31:37.186Z,27.22
2019-03-31T16:34:06.420Z,27.54
2019-03-31T16:36:35.682Z,27.33
2019-03-31T16:39:06.933Z,27.20
2019-03-31T16:41:36.181Z,26.87
2019-03-31T16:44:05.399Z,26.63
2019-03-31T16:46:34.682Z,27.20
2019-03-31T16:49:03.961Z,26.96
2019-03-31T16:51:33.268Z,27.22
2019-03-31T16:54:02.474Z,27.52
2019-03-31T16:56:31.791Z,28.73
2019-03-31T16:59:01.066Z,30.02
2019-03-31T17:01:30.380Z,30.81
2019-03-31T17:03:59.622Z,31.17
2019-03-31T17:06:28.864Z,31.47
2019-03-31T17:08:58.122Z,31.80
2019-03-31T17:11:27.318Z,31.36
2019-03-31T17:13:56.539Z,31.38
2019-03-31T17:16:26.333Z,31.44
2019-03-31T17:18:55.681Z,31.88
2019-03-31T17:21:25.146Z,32.34
2019-03-31T17:23:54.491Z,32.64
2019-03-31T17:26:23.720Z,33.40
2019-03-31T17:28:52.974Z,34.20
2019-03-31T17:31:22.315Z,34.11
2019-03-31T17:33:51.590Z,34.54
2019-03-31T17:36:20.897Z,35.48
2019-03-31T17:38:50.168Z,36.09
2019-03-31T17:41:19.406Z,36.78
2019-03-31T17:43:48.721Z,37.54
2019-03-31T17:46:18.028Z,37.96
2019-03-31T17:48:47.252Z,38.22
2019-03-31T17:51:16.455Z,38.53
2019-03-31T17:53:45.730Z,39.02
2019-03-31T17:56:15.031Z,39.40
2019-03-31T17:58:44.278Z,39.88
2019-03-31T18:01:13.758Z,40.47
2019-03-31T18:03:43.032Z,40.86
2019-03-31T18:06:12.225Z,41.10
2019-03-31T18:08:42.532Z,41.73
2019-03-31T18:11:10.819Z,41.97
2019-03-31T18:13:40.039Z,41.70
2019-03-31T18:16:09.289Z,41.93
2019-03-31T18:18:38.551Z,42.40
2019-03-31T18:21:07.794Z,43.00
2019-03-31T18:23:37.133Z,43.27
2019-03-31T18:26:06.401Z,43.30
2019-03-31T18:28:35.767Z,43.54
2019-03-31T18:31:05.002Z,44.05
2019-03-31T18:33:34.326Z,44.07
2019-03-31T18:36:03.814Z,44.38
2019-03-31T18:38:33.230Z,44.35
2019-03-31T18:41:03.846Z,44.70
2019-03-31T18:43:32.122Z,44.88
2019-03-31T18:46:02.011Z,45.16
2019-03-31T18:48:31.334Z,45.50
2019-03-31T18:51:00.756Z,45.47
2019-03-31T18:53:35.313Z,45.84
2019-03-31T18:56:29.360Z,46.01
2019-03-31T18:59:14.986Z,46.21
2019-03-31T19:01:55.988Z,46.42
2019-03-31T19:04:38.965Z,46.83
2019-03-31T19:07:30.321Z,47.17
2019-03-31T19:10:24.796Z,47.08
2019-03-31T19:12:56.402Z,47.37
2019-03-31T19:15:36.970Z,47.30
2019-03-31T19:18:25.391Z,47.35
2019-03-31T19:21:12.545Z,47.39
2019-03-31T19:24:06.663Z,47.20
2019-03-31T19:26:48.520Z,47.37
2019-03-31T19:29:24.726Z,47.57
2019-03-31T19:32:08.008Z,47.98
2019-03-31T19:34:43.973Z,47.98
2019-03-31T19:37:24.435Z,48.53
2019-03-31T19:40:11.340Z,48.10
2019-03-31T19:42:58.843Z,48.23
2019-03-31T19:45:35.858Z,48.23
2019-03-31T19:48:42.380Z,48.27
2019-03-31T19:51:19.949Z,48.22
2019-03-31T19:54:14.468Z,48.36
2019-03-31T19:57:11.959Z,48.37
2019-03-31T20:00:02.933Z,48.21
2019-03-31T20:02:44.876Z,48.59
2019-03-31T20:05:40.427Z,48.67
2019-03-31T20:08:34.708Z,48.67
2019-03-31T20:11:31.928Z,48.75
2019-03-31T20:14:35.316Z,49.99
2019-03-31T20:17:32.891Z,51.17
2019-03-31T20:20:36.318Z,51.17
2019-03-31T20:23:16.222Z,49.29
2019-03-31T20:25:58.020Z,49.01
2019-03-31T20:28:46.349Z,49.01
2019-03-31T20:31:23.727Z,49.04
2019-03-31T20:34:14.615Z,49.84
2019-03-31T20:37:18.005Z,49.78
2019-03-31T20:40:10.730Z,49.78
2019-03-31T20:42:53.476Z,50.15
2019-03-31T20:45:25.558Z,50.19
2019-03-31T20:47:54.784Z,50.17
2019-03-31T20:50:24.080Z,50.53
2019-03-31T20:52:53.332Z,50.57
2019-03-31T20:55:22.535Z,50.99
2019-03-31T20:57:51.949Z,50.99
2019-03-31T21:00:21.521Z,51.38
2019-03-31T21:02:50.736Z,51.83
2019-03-31T21:05:20.054Z,51.83
2019-03-31T21:07:49.347Z,52.02
2019-03-31T21:10:21.291Z,52.35
2019-03-31T21:12:50.612Z,52.14
2019-03-31T21:15:19.890Z,52.79
2019-03-31T21:17:49.172Z,52.79
2019-03-31T21:20:18.368Z,53.12
2019-03-31T21:22:47.719Z,53.12
2019-03-31T21:25:16.891Z,53.13
2019-03-31T21:27:46.159Z,53.39
2019-03-31T21:30:15.412Z,53.35
2019-03-31T21:32:47.938Z,53.49
2019-03-31T21:35:17.159Z,53.49
2019-03-31T21:37:46.389Z,53.84
2019-03-31T21:40:15.668Z,53.75
2019-03-31T21:42:44.880Z,54.04
2019-03-31T21:45:14.121Z,54.02
2019-03-31T21:47:43.376Z,54.20
2019-03-31T21:50:12.662Z,54.26
2019-03-31T21:52:41.975Z,54.45
2019-03-31T21:55:11.262Z,54.70
2019-03-31T21:57:40.519Z,54.89
2019-03-31T22:00:09.776Z,55.01
2019-03-31T22:02:38.969Z,55.01
2019-03-31T22:05:08.276Z,55.20
2019-03-31T22:07:37.571Z,55.50
2019-03-31T22:10:07.096Z,55.63
2019-03-31T22:12:36.275Z,55.87
2019-03-31T22:15:05.588Z,56.24
2019-03-31T22:17:34.863Z,56.35
2019-03-31T22:20:04.254Z,56.58
2019-03-31T22:22:33.465Z,56.61
2019-03-31T22:25:02.676Z,56.73
2019-03-31T22:27:31.967Z,56.89
2019-03-31T22:30:01.203Z,57.08
2019-03-31T22:32:30.382Z,57.50
2019-03-31T22:34:59.609Z,57.61
2019-03-31T22:37:28.799Z,57.91
2019-03-31T22:39:58.019Z,57.79
2019-03-31T22:42:27.214Z,57.89
2019-03-31T22:44:56.553Z,57.97
2019-03-31T22:47:25.756Z,58.26
2019-03-31T22:49:54.985Z,58.56
2019-03-31T22:52:24.201Z,59.00
2019-03-31T22:54:53.420Z,58.71
2019-03-31T22:57:22.622Z,59.45
2019-03-31T22:59:51.843Z,58.92
2019-03-31T23:02:21.087Z,59.17
2019-03-31T23:04:50.312Z,59.17
2019-03-31T23:07:19.541Z,59.41
2019-03-31T23:09:48.782Z,59.96
2019-03-31T23:12:18.070Z,59.84
2019-03-31T23:14:47.337Z,59.92
2019-03-31T23:17:16.564Z,60.25
2019-03-31T23:19:45.883Z,60.30
2019-03-31T23:22:15.166Z,60.46
2019-03-31T23:24:44.479Z,60.61
2019-03-31T23:27:13.770Z,60.71
2019-03-31T23:29:42.985Z,60.74
2019-03-31T23:32:12.196Z,61.14
2019-03-31T23:34:41.491Z,60.86
2019-03-31T23:37:10.714Z,61.14
2019-03-31T23:39:39.978Z,61.01
2019-03-31T23:42:09.172Z,60.75
2019-03-31T23:44:38.385Z,60.94
2019-03-31T23:47:07.593Z,61.07
2019-03-31T23:49:36.842Z,61.25
2019-03-31T23:52:06.039Z,61.75
2019-03-31T23:54:35.278Z,61.80
2019-03-31T23:57:04.522Z,62.17
2019-03-31T23:59:33.756Z,62.20
